Time;durP1;ratioP1;P1;durP2;ratioP2;P2;SDS_P1;SDS_P2;PMS_P1;PMS_P2;Temp;Humidity;BMP_temperature;BMP_pressure;BME280_temperature;BME280_humidity;BME280_pressure;Samples;Min_cycle;Max_cycle;Signal;HPM_P1;HPM_P2
2023/06/17 00:00:19;;;;;;;13.25;9.32;;;;;;;21.55;100.00;99552.25;5012973;28;20048;-68
2023/06/17 00:02:45;;;;;;;11.32;9.25;;;;;;;21.10;100.00;99495.50;5012780;28;20571;-63
2023/06/17 00:05:10;;;;;;;12.95;9.85;;;;;;;21.30;100.00;99558.03;5012723;28;20096;-64
2023/06/17 00:07:36;;;;;;;13.50;9.38;;;;;;;21.34;100.00;99554.44;5012910;28;20104;-63
2023/06/17 00:10:01;;;;;;;13.00;9.90;;;;;;;21.30;100.00;99539.66;5012647;28;20775;-63
2023/06/17 00:12:31;;;;;;;16.20;9.75;;;;;;;21.20;100.00;99519.75;5012393;28;20045;-71
2023/06/17 00:15:01;;;;;;;27.45;10.40;;;;;;;21.48;100.00;99557.63;5012857;28;20153;-65
2023/06/17 00:17:30;;;;;;;;;;;;;;;21.46;100.00;99556.81;5013019;28;20037;-64
2023/06/17 00:19:58;;;;;;;38.83;11.32;;;;;;;21.47;100.00;99560.28;5012618;28;19917;-62
2023/06/17 00:22:25;;;;;;;24.15;9.88;;;;;;;21.34;100.00;99555.28;5012476;28;20026;-62
2023/06/17 00:24:53;;;;;;;22.75;9.85;;;;;;;21.19;100.00;99533.78;5012043;28;20038;-67
2023/06/17 00:27:18;;;;;;;21.20;9.38;;;;;;;21.32;100.00;99548.34;5012433;28;20029;-66
2023/06/17 00:29:43;;;;;;;19.73;9.30;;;;;;;21.36;100.00;99539.53;5012230;28;20028;-62
2023/06/17 00:32:09;;;;;;;33.55;10.55;;;;;;;21.38;100.00;99532.47;5012579;28;20117;-64
2023/06/17 00:34:34;;;;;;;44.58;13.05;;;;;;;21.45;100.00;99538.47;5025936;28;20649;-62
2023/06/17 00:37:00;;;;;;;50.25;12.32;;;;;;;21.39;100.00;99539.44;5012753;28;20088;-67
2023/06/17 00:39:26;;;;;;;28.38;11.93;;;;;;;21.41;100.00;99529.78;5011815;28;20034;-68
2023/06/17 00:41:51;;;;;;;17.92;9.70;;;;;;;21.41;100.00;99527.16;5012258;28;20030;-66
2023/06/17 00:44:16;;;;;;;19.55;10.07;;;;;;;21.30;100.00;99532.66;5011965;28;20033;-67
2023/06/17 00:46:46;;;;;;;15.15;9.68;;;;;;;21.15;100.00;99525.97;5012332;28;20034;-63
2023/06/17 00:49:12;;;;;;;14.05;10.32;;;;;;;20.97;100.00;99518.50;5012329;28;20076;-65
2023/06/17 00:51:38;;;;;;;11.98;9.93;;;;;;;20.80;100.00;99501.34;5012579;28;20053;-65
2023/06/17 00:54:07;;;;;;;15.50;10.25;;;;;;;20.78;100.00;99511.00;5011566;28;20062;-66
2023/06/17 00:56:34;;;;;;;13.02;10.30;;;;;;;20.75;100.00;99510.19;5012193;28;20105;-65
2023/06/17 00:59:01;;;;;;;12.15;10.10;;;;;;;20.39;100.00;99449.69;5011901;28;20034;-67
2023/06/17 01:01:29;;;;;;;13.25;10.30;;;;;;;20.69;100.00;99505.91;5011188;28;20112;-66
2023/06/17 01:03:59;;;;;;;18.40;10.52;;;;;;;20.24;100.00;99440.38;5011737;28;20029;-62
2023/06/17 01:06:55;;;;;;;15.68;9.80;;;;;;;20.56;100.00;99507.06;5011398;28;20164;-69
2023/06/17 01:09:28;;;;;;;16.08;10.15;;;;;;;20.43;100.00;99504.66;4970277;28;20057;-65
2023/06/17 01:11:56;;;;;;;12.10;10.75;;;;;;;20.11;100.00;99451.13;4970307;28;20045;-66
2023/06/17 01:14:23;;;;;;;15.43;11.13;;;;;;;20.34;100.00;99507.47;4969895;28;20065;-66
2023/06/17 01:16:54;;;;;;;15.23;11.07;;;;;;;20.17;100.00;99485.03;4970505;28;20456;-62
2023/06/17 01:19:23;;;;;;;17.13;12.32;;;;;;;20.20;100.00;99505.97;4969927;28;20146;-62
2023/06/17 01:21:51;;;;;;;16.13;11.90;;;;;;;20.14;100.00;99487.72;4969991;28;20035;-66
2023/06/17 01:24:28;;;;;;;16.33;11.70;;;;;;;20.16;100.00;99506.03;4922110;28;20042;-68
2023/06/17 01:26:59;;;;;;;14.48;12.27;;;;;;;20.20;100.00;99510.34;4969945;28;20046;-66
2023/06/17 01:29:26;;;;;;;15.45;11.38;;;;;;;20.19;100.00;99495.53;4969675;28;20026;-67
2023/06/17 01:31:57;;;;;;;16.35;11.55;;;;;;;20.24;100.00;99509.41;4969717;28;20041;-66
2023/06/17 01:34:40;;;;;;;15.90;11.73;;;;;;;20.21;100.00;99498.94;4966460;28;20034;-64
2023/06/17 01:37:09;;;;;;;13.70;11.13;;;;;;;20.13;100.00;99504.34;4969491;28;20085;-66
2023/06/17 01:39:39;;;;;;;15.38;12.18;;;;;;;20.13;100.00;99500.88;4969405;28;20421;-64
2023/06/17 01:42:11;;;;;;;16.63;12.57;;;;;;;20.08;100.00;99505.34;4951724;28;20465;-65
2023/06/17 01:44:39;;;;;;;13.90;12.43;;;;;;;19.98;100.00;99496.75;4969708;28;20382;-69
2023/06/17 01:47:09;;;;;;;16.80;11.75;;;;;;;19.91;100.00;99493.38;5003738;28;20045;-67
2023/06/17 01:49:35;;;;;;;14.57;12.93;;;;;;;19.76;100.00;99481.34;5011092;28;20062;-64
2023/06/17 01:52:00;;;;;;;15.00;11.52;;;;;;;19.73;100.00;99497.13;5009944;28;20057;-64
2023/06/17 01:54:27;;;;;;;15.50;11.85;;;;;;;19.52;100.00;99467.78;5011329;28;20025;-64
2023/06/17 01:56:53;;;;;;;18.48;11.07;;;;;;;19.65;100.00;99483.28;5011118;28;20030;-64
2023/06/17 01:59:18;;;;;;;17.67;11.20;;;;;;;19.72;100.00;99495.41;5010097;28;20030;-64
2023/06/17 02:01:43;;;;;;;12.55;10.80;;;;;;;19.75;100.00;99508.47;5011474;28;20026;-63
2023/06/17 02:04:09;;;;;;;13.35;10.43;;;;;;;19.73;100.00;99499.75;5011164;28;20049;-63
2023/06/17 02:06:35;;;;;;;16.17;10.90;;;;;;;19.80;100.00;99498.78;5011136;28;20531;-65
2023/06/17 02:09:00;;;;;;;17.75;10.40;;;;;;;19.83;100.00;99498.75;5010962;28;20021;-65
2023/06/17 02:11:27;;;;;;;18.23;10.95;;;;;;;19.87;100.00;99500.41;5010752;28;20022;-64
2023/06/17 02:13:52;;;;;;;15.07;10.35;;;;;;;19.74;100.00;99477.94;5010401;28;20065;-64
2023/06/17 02:16:17;;;;;;;14.45;10.25;;;;;;;19.88;100.00;99503.91;5010892;28;20058;-67
2023/06/17 02:18:43;;;;;;;15.48;9.95;;;;;;;19.85;100.00;99507.44;5010846;28;20032;-63
2023/06/17 02:21:09;;;;;;;12.27;9.20;;;;;;;19.64;100.00;99482.44;5010782;28;20060;-63
2023/06/17 02:23:35;;;;;;;16.42;10.13;;;;;;;19.78;100.00;99497.06;5010663;28;20109;-64
2023/06/17 02:26:01;;;;;;;10.98;9.05;;;;;;;19.81;100.00;99495.28;5010544;28;20145;-64
2023/06/17 02:28:26;;;;;;;14.95;9.27;;;;;;;19.37;100.00;99424.41;5010941;28;20025;-65
2023/06/17 02:30:52;;;;;;;18.55;9.60;;;;;;;19.70;100.00;99489.31;5010820;28;20029;-64
2023/06/17 02:33:18;;;;;;;11.13;8.63;;;;;;;19.59;100.00;99483.38;5010912;28;20034;-67
2023/06/17 02:35:46;;;;;;;17.23;9.52;;;;;;;19.53;100.00;99487.00;5010751;28;20054;-64
2023/06/17 02:38:13;;;;;;;16.58;9.40;;;;;;;19.54;100.00;99484.34;5010468;28;20034;-64
2023/06/17 02:40:38;;;;;;;15.10;8.60;;;;;;;19.43;100.00;99475.78;5010625;28;20025;-64
2023/06/17 02:43:04;;;;;;;16.92;9.00;;;;;;;19.47;100.00;99487.09;5010419;28;20096;-68
2023/06/17 02:45:29;;;;;;;14.45;8.40;;;;;;;19.39;100.00;99484.59;5010433;28;20025;-64
2023/06/17 02:47:55;;;;;;;18.67;9.43;;;;;;;19.10;100.00;99433.53;5010271;28;20056;-69
2023/06/17 02:50:23;;;;;;;13.13;8.60;;;;;;;19.47;100.00;99487.09;5010577;28;20022;-63
2023/06/17 02:52:55;;;;;;;15.48;8.82;;;;;;;19.48;100.00;99491.44;5010040;28;20070;-62
2023/06/17 02:55:22;;;;;;;22.77;9.52;;;;;;;19.35;100.00;99501.19;5009281;28;20022;-64
2023/06/17 02:57:48;;;;;;;22.73;9.38;;;;;;;19.22;100.00;99504.00;5010845;28;20053;-64
2023/06/17 03:00:14;;;;;;;21.25;9.02;;;;;;;19.22;100.00;99513.59;5010466;28;20021;-64
2023/06/17 03:02:39;;;;;;;15.00;8.77;;;;;;;19.16;100.00;99514.53;5010425;28;20049;-67
2023/06/17 03:05:07;;;;;;;21.02;9.73;;;;;;;19.12;100.00;99506.78;5010237;28;20025;-68
2023/06/17 03:07:36;;;;;;;17.33;8.98;;;;;;;19.27;100.00;99524.88;5010110;28;20029;-65
2023/06/17 03:10:02;;;;;;;20.73;9.35;;;;;;;19.06;100.00;99489.41;5010109;28;20025;-66
2023/06/17 03:12:28;;;;;;;19.15;9.77;;;;;;;19.26;100.00;99523.13;5009954;28;20515;-65
2023/06/17 03:14:53;;;;;;;21.90;10.10;;;;;;;19.23;100.00;99534.50;5010194;28;20026;-63
2023/06/17 03:17:18;;;;;;;21.75;10.05;;;;;;;19.02;100.00;99488.56;5010351;28;20036;-65
2023/06/17 03:19:44;;;;;;;19.23;9.95;;;;;;;19.29;100.00;99544.03;5009942;28;20488;-67
2023/06/17 03:22:10;;;;;;;20.55;9.63;;;;;;;19.36;100.00;99535.19;5010126;28;20091;-64
2023/06/17 03:24:35;;;;;;;14.55;9.57;;;;;;;19.39;100.00;99543.03;5012357;28;20396;-66
2023/06/17 03:27:01;;;;;;;18.10;9.38;;;;;;;19.38;100.00;99537.81;5014187;28;20408;-65
2023/06/17 03:29:27;;;;;;;21.40;9.45;;;;;;;19.35;100.00;99538.72;5014069;28;20428;-67
2023/06/17 03:31:56;;;;;;;20.58;9.48;;;;;;;19.38;100.00;99549.13;5013868;28;20037;-67
2023/06/17 03:34:22;;;;;;;14.52;9.35;;;;;;;19.37;100.00;99536.06;5013597;28;20022;-65
2023/06/17 03:36:49;;;;;;;19.95;9.57;;;;;;;19.37;100.00;99544.78;5013698;28;20054;-63
2023/06/17 03:39:14;;;;;;;20.92;9.27;;;;;;;19.28;100.00;99520.50;5013597;28;20029;-65
2023/06/17 03:41:40;;;;;;;19.85;9.27;;;;;;;19.29;100.00;99525.72;5013643;28;20026;-65
2023/06/17 03:44:05;;;;;;;20.05;9.93;;;;;;;19.36;100.00;99543.06;5013743;28;20045;-64
2023/06/17 03:46:31;;;;;;;18.52;9.73;;;;;;;19.32;100.00;99536.13;5013792;28;20025;-70
2023/06/17 03:48:56;;;;;;;23.25;10.07;;;;;;;19.04;100.00;99497.28;5013410;28;20039;-65
2023/06/17 03:51:22;;;;;;;17.02;8.95;;;;;;;19.19;100.00;99538.06;5027868;28;20193;-64
2023/06/17 03:53:48;;;;;;;17.85;9.82;;;;;;;19.11;100.00;99524.22;5013549;28;20113;-66
2023/06/17 03:56:13;;;;;;;18.10;9.63;;;;;;;19.19;100.00;99524.97;5011339;28;20419;-66
2023/06/17 03:58:39;;;;;;;17.40;9.82;;;;;;;19.18;100.00;99541.56;5013345;28;20037;-65
2023/06/17 04:01:06;;;;;;;13.35;8.98;;;;;;;19.21;100.00;99535.41;5013475;28;20396;-64
2023/06/17 04:03:34;;;;;;;17.33;9.18;;;;;;;19.15;100.00;99531.16;5006420;28;20030;-65
2023/06/17 04:06:00;;;;;;;17.25;8.68;;;;;;;19.14;100.00;99523.31;5013287;28;20091;-65
2023/06/17 04:08:27;;;;;;;13.75;8.13;;;;;;;19.10;100.00;99524.25;5013227;28;20030;-65
2023/06/17 04:10:52;;;;;;;14.50;9.40;;;;;;;19.11;100.00;99534.69;5012261;28;20523;-65
2023/06/17 04:13:18;;;;;;;18.92;9.40;;;;;;;19.10;100.00;99529.47;5012913;28;20053;-64
2023/06/17 04:15:45;;;;;;;19.70;8.27;;;;;;;19.20;100.00;99528.44;5013114;28;20049;-64
2023/06/17 04:18:14;;;;;;;14.85;8.80;;;;;;;19.20;100.00;99520.59;5012856;28;20022;-66
2023/06/17 04:20:40;;;;;;;13.43;7.85;;;;;;;19.15;100.00;99510.22;5013439;28;20025;-64
2023/06/17 04:23:05;;;;;;;13.75;8.10;;;;;;;19.10;100.00;99516.38;5013035;28;20040;-68
2023/06/17 04:25:32;;;;;;;13.07;8.88;;;;;;;19.17;100.00;99523.28;5012000;28;20472;-63
2023/06/17 04:28:01;;;;;;;17.70;8.63;;;;;;;19.13;100.00;99532.91;5027160;28;20038;-63
2023/06/17 04:30:27;;;;;;;14.48;8.30;;;;;;;19.14;100.00;99534.66;5012833;28;20030;-65
2023/06/17 04:32:55;;;;;;;14.45;8.73;;;;;;;19.16;100.00;99532.00;5012560;28;20122;-65
2023/06/17 04:35:21;;;;;;;14.73;8.35;;;;;;;19.16;100.00;99530.25;5010794;28;20056;-66
2023/06/17 04:37:53;;;;;;;16.10;8.07;;;;;;;19.11;100.00;99533.81;5011735;28;20104;-65
2023/06/17 04:40:20;;;;;;;15.85;8.73;;;;;;;19.14;100.00;99541.63;5012974;28;20121;-66
2023/06/17 04:42:47;;;;;;;16.70;8.57;;;;;;;19.22;100.00;99553.72;5012475;28;20030;-65
2023/06/17 04:45:12;;;;;;;15.95;9.80;;;;;;;19.22;100.00;99540.63;5012148;28;20026;-65
2023/06/17 04:47:38;;;;;;;14.43;8.48;;;;;;;19.00;100.00;99506.03;5012706;28;20034;-66
2023/06/17 04:50:04;;;;;;;11.07;8.90;;;;;;;19.33;100.00;99556.19;5012875;28;20029;-66
2023/06/17 04:52:31;;;;;;;15.50;8.85;;;;;;;19.34;100.00;99551.81;5012183;28;20511;-65
2023/06/17 04:54:56;;;;;;;12.75;8.38;;;;;;;19.37;100.00;99564.88;5012429;28;20052;-66
2023/06/17 04:57:22;;;;;;;13.68;8.88;;;;;;;19.24;100.00;99543.25;5012640;28;20017;-65
2023/06/17 04:59:48;;;;;;;13.70;8.68;;;;;;;19.28;100.00;99552.78;5012278;28;20053;-65
2023/06/17 05:02:14;;;;;;;11.60;9.00;;;;;;;19.12;100.00;99522.47;5012014;28;20492;-64
2023/06/17 05:04:39;;;;;;;11.45;8.75;;;;;;;19.37;100.00;99559.63;5012497;28;20038;-64
2023/06/17 05:07:05;;;;;;;12.85;8.85;;;;;;;19.34;100.00;99557.94;5011479;28;20046;-65
2023/06/17 05:09:30;;;;;;;14.23;9.05;;;;;;;19.36;100.00;99566.59;5012255;28;20026;-64
2023/06/17 05:11:56;;;;;;;11.82;9.02;;;;;;;19.10;100.00;99519.00;5012221;28;20052;-64
2023/06/17 05:14:21;;;;;;;12.30;9.38;;;;;;;19.48;100.00;99570.81;5011894;28;20404;-64
2023/06/17 05:16:46;;;;;;;14.93;8.93;;;;;;;19.29;100.00;99533.59;5011780;28;20034;-65
2023/06/17 05:19:12;;;;;;;14.45;9.13;;;;;;;19.53;100.00;99581.22;5012046;28;20029;-64
2023/06/17 05:21:37;;;;;;;12.25;9.18;;;;;;;19.53;100.00;99566.38;5012058;28;20029;-65
2023/06/17 05:24:03;;;;;;;12.35;8.60;;;;;;;19.58;100.00;99582.03;5011938;28;20038;-64
2023/06/17 05:26:28;;;;;;;12.88;8.82;;;;;;;19.57;100.00;99577.66;5011782;28;20179;-64
2023/06/17 05:28:54;;;;;;;12.07;9.02;;;;;;;19.51;100.00;99575.13;5011722;28;20030;-65
2023/06/17 05:31:21;;;;;;;14.65;8.90;;;;;;;19.53;100.00;99579.47;5011268;28;20485;-66
2023/06/17 05:33:47;;;;;;;14.70;9.10;;;;;;;19.17;100.00;99525.91;5011805;28;20504;-65
2023/06/17 05:36:12;;;;;;;14.80;9.07;;;;;;;19.55;100.00;99595.16;5011460;28;20136;-67
2023/06/17 05:38:38;;;;;;;19.70;10.05;;;;;;;19.51;100.00;99591.69;5011690;28;20061;-64
2023/06/17 05:41:03;;;;;;;14.43;9.90;;;;;;;19.52;100.00;99590.81;5011374;28;20029;-69
2023/06/17 05:43:29;;;;;;;14.18;9.80;;;;;;;19.53;100.00;99594.31;5011316;28;20030;-66
2023/06/17 05:45:54;;;;;;;12.63;10.00;;;;;;;19.62;100.00;99595.94;5011258;28;20076;-64
2023/06/17 05:48:20;;;;;;;13.25;9.55;;;;;;;19.58;100.00;99599.47;5010361;28;20041;-64
2023/06/17 05:50:45;;;;;;;12.85;9.85;;;;;;;19.61;100.00;99604.69;5011451;28;20029;-64
2023/06/17 05:53:11;;;;;;;11.80;9.65;;;;;;;19.28;100.00;99538.81;5011444;28;20026;-65
2023/06/17 05:55:36;;;;;;;13.32;9.45;;;;;;;19.56;100.00;99586.41;5011423;28;20045;-65
2023/06/17 05:58:02;;;;;;;19.13;10.00;;;;;;;19.60;100.00;99597.72;5011089;28;20132;-64
2023/06/17 06:00:27;;;;;;;19.08;10.00;;;;;;;19.59;100.00;99595.97;5011180;28;20030;-65
2023/06/17 06:02:53;;;;;;;13.75;10.02;;;;;;;19.68;100.00;99609.81;5011345;28;20121;-65
2023/06/17 06:05:18;;;;;;;14.77;10.02;;;;;;;19.69;100.00;99606.31;5011080;28;20480;-64
2023/06/17 06:07:44;;;;;;;13.43;9.88;;;;;;;19.72;100.00;99608.00;5010966;28;20033;-65
2023/06/17 06:10:11;;;;;;;12.65;9.93;;;;;;;19.64;100.00;99607.25;5009769;28;20026;-64
2023/06/17 06:12:37;;;;;;;17.42;10.32;;;;;;;19.69;100.00;99608.91;5005529;28;20026;-64
2023/06/17 06:15:03;;;;;;;12.77;10.25;;;;;;;19.65;100.00;99604.63;5003885;28;20476;-67
2023/06/17 06:17:30;;;;;;;12.52;10.05;;;;;;;19.68;100.00;99603.72;5006589;28;20065;-70
2023/06/17 06:19:55;;;;;;;12.35;10.15;;;;;;;19.77;100.00;99619.28;5009204;28;20046;-66
2023/06/17 06:22:21;;;;;;;15.95;10.18;;;;;;;19.85;100.00;99620.06;4999035;28;20030;-65
2023/06/17 06:24:47;;;;;;;14.25;9.32;;;;;;;19.76;100.00;99616.69;5002507;28;20538;-66
2023/06/17 06:27:12;;;;;;;16.40;10.13;;;;;;;19.60;100.00;99585.50;4997270;28;20535;-65
2023/06/17 06:29:37;;;;;;;14.73;10.68;;;;;;;19.46;100.00;99569.97;5007346;28;20018;-64
2023/06/17 06:32:05;;;;;;;14.02;10.40;;;;;;;19.72;100.00;99610.63;5010456;28;20494;-65
2023/06/17 06:34:30;;;;;;;14.10;10.55;;;;;;;19.71;100.00;99616.75;5009682;28;20377;-63
2023/06/17 06:36:58;;;;;;;14.13;10.10;;;;;;;19.67;100.00;99617.69;5006207;28;20029;-64
2023/06/17 06:39:23;;;;;;;12.40;10.95;;;;;;;19.74;100.00;99624.56;4997366;28;20146;-65
2023/06/17 06:41:49;;;;;;;14.30;10.88;;;;;;;19.51;100.00;99572.53;5008874;28;20112;-66
2023/06/17 06:44:14;;;;;;;14.75;11.15;;;;;;;19.42;100.00;99563.06;5009858;28;20026;-65
2023/06/17 06:46:40;;;;;;;13.20;11.50;;;;;;;19.65;100.00;99604.63;5010599;28;20034;-64
2023/06/17 06:49:05;;;;;;;16.23;11.13;;;;;;;19.69;100.00;99605.44;5010092;28;20033;-64
2023/06/17 06:51:31;;;;;;;17.10;10.95;;;;;;;19.56;100.00;99575.94;5004997;28;20117;-65
2023/06/17 06:53:57;;;;;;;13.43;10.93;;;;;;;19.84;100.00;99613.09;5001483;28;20034;-65
2023/06/17 06:56:22;;;;;;;16.30;11.18;;;;;;;19.85;100.00;99612.22;4992637;28;20100;-67
2023/06/17 06:58:48;;;;;;;16.20;10.45;;;;;;;19.87;100.00;99607.81;4992659;28;20092;-67
2023/06/17 07:01:13;;;;;;;17.48;10.88;;;;;;;19.87;100.00;99594.69;5007862;28;20037;-65
2023/06/17 07:03:39;;;;;;;19.95;11.63;;;;;;;19.65;100.00;99567.09;5009790;28;20449;-69
2023/06/17 07:06:05;;;;;;;14.55;11.20;;;;;;;19.43;100.00;99536.00;5008610;28;20030;-69
2023/06/17 07:08:30;;;;;;;15.20;11.20;;;;;;;19.81;100.00;99609.63;5004476;28;20024;-68
2023/06/17 07:10:56;;;;;;;19.48;11.02;;;;;;;19.85;100.00;99606.97;4998861;28;20038;-67
2023/06/17 07:13:21;;;;;;;14.20;9.98;;;;;;;19.91;100.00;99606.00;5003031;28;20524;-65
2023/06/17 07:15:47;;;;;;;16.80;10.38;;;;;;;19.86;100.00;99603.47;5003465;28;20033;-69
2023/06/17 07:18:12;;;;;;;16.70;9.98;;;;;;;19.84;100.00;99604.38;5003686;28;20041;-68
2023/06/17 07:20:38;;;;;;;16.33;11.25;;;;;;;19.72;100.00;99584.44;5004897;28;20050;-67
2023/06/17 07:23:03;;;;;;;15.25;10.40;;;;;;;19.85;100.00;99604.38;5000871;28;20109;-66
2023/06/17 07:25:29;;;;;;;12.85;10.32;;;;;;;19.87;100.00;99609.56;5008868;28;20018;-70
2023/06/17 07:27:56;;;;;;;14.55;10.90;;;;;;;19.92;100.00;99607.75;5008171;28;20459;-66
2023/06/17 07:30:23;;;;;;;13.75;9.98;;;;;;;19.96;100.00;99611.19;5009396;28;20022;-65
2023/06/17 07:32:48;;;;;;;16.98;10.60;;;;;;;19.77;100.00;99595.72;4988646;28;20086;-67
2023/06/17 07:35:14;;;;;;;14.45;10.75;;;;;;;19.83;100.00;99606.13;5007380;28;20049;-66
2023/06/17 07:37:39;;;;;;;14.32;10.07;;;;;;;19.67;100.00;99597.59;5008445;28;20634;-65
2023/06/17 07:40:06;;;;;;;13.10;10.82;;;;;;;19.71;100.00;99601.03;5009600;28;20033;-72
2023/06/17 07:42:31;;;;;;;14.63;10.82;;;;;;;19.83;100.00;99611.38;5009017;28;20036;-68
2023/06/17 07:44:57;;;;;;;13.55;10.75;;;;;;;19.78;100.00;99600.06;5009449;28;20026;-69
2023/06/17 07:47:23;;;;;;;15.48;11.52;;;;;;;19.52;100.00;99545.47;5003360;28;20030;-64
2023/06/17 07:49:49;;;;;;;18.13;10.40;;;;;;;19.72;100.00;99592.28;5006615;28;20037;-66
2023/06/17 07:52:35;;;;;;;13.57;9.18;;;;;;;19.76;100.00;99588.72;5025818;28;20041;-69
2023/06/17 07:55:04;;;;;;;14.77;9.32;;;;;;;19.72;100.00;99601.00;5023204;28;20499;-66
2023/06/17 07:57:30;;;;;;;11.18;8.93;;;;;;;19.81;100.00;99604.38;5024426;28;20652;-69
2023/06/17 07:59:56;;;;;;;14.20;9.00;;;;;;;19.63;100.00;99558.41;5026388;28;20034;-66
2023/06/17 08:02:21;;;;;;;10.77;8.32;;;;;;;19.87;100.00;99594.69;5025976;28;20038;-64
2023/06/17 08:04:47;;;;;;;16.40;8.10;;;;;;;19.75;100.00;99557.34;5026782;28;20112;-66
2023/06/17 08:07:13;;;;;;;10.88;7.70;;;;;;;20.08;100.00;99597.88;4988094;28;20033;-67
2023/06/17 08:09:38;;;;;;;10.23;7.75;;;;;;;20.17;100.00;99612.59;5025202;28;20609;-67
2023/06/17 08:12:04;;;;;;;10.75;7.32;;;;;;;19.87;100.00;99576.38;5028951;28;20065;-69
2023/06/17 08:14:30;;;;;;;7.65;5.90;;;;;;;20.06;100.00;99619.75;5011810;28;20052;-65
2023/06/17 08:16:55;;;;;;;10.32;6.80;;;;;;;19.77;100.00;99607.94;5029732;28;20462;-66
2023/06/17 08:19:21;;;;;;;9.23;6.25;;;;;;;19.84;100.00;99620.09;5026975;28;20998;-68
2023/06/17 08:21:47;;;;;;;9.65;6.00;;;;;;;19.85;100.00;99617.47;5027679;28;20068;-65
2023/06/17 08:24:19;;;;;;;8.90;6.20;;;;;;;19.86;100.00;99611.34;5014669;28;20129;-68
2023/06/17 08:26:45;;;;;;;9.30;6.43;;;;;;;20.00;100.00;99625.94;5018981;28;20088;-64
2023/06/17 08:29:15;;;;;;;9.98;5.88;;;;;;;20.01;100.00;99625.06;5010618;28;20495;-65
2023/06/17 08:31:48;;;;;;;9.13;6.22;;;;;;;20.16;100.00;99621.34;5010564;28;20957;-64
2023/06/17 08:34:14;;;;;;;11.65;7.00;;;;;;;20.24;100.00;99608.09;5012292;28;20037;-65
2023/06/17 08:36:45;;;;;;;8.68;6.30;;;;;;;20.41;100.00;99623.56;5011266;28;20054;-65
2023/06/17 08:39:10;;;;;;;10.57;6.43;;;;;;;20.42;100.00;99613.03;5011977;28;20033;-68
2023/06/17 08:41:39;;;;;;;8.95;6.22;;;;;;;20.48;100.00;99618.19;5011952;28;20423;-66
2023/06/17 08:44:06;;;;;;;11.32;6.07;;;;;;;20.24;100.00;99580.16;5011897;28;20033;-64
2023/06/17 08:46:34;;;;;;;9.18;5.35;;;;;;;20.53;100.00;99624.19;5012427;28;20030;-66
2023/06/17 08:49:02;;;;;;;7.63;5.70;;;;;;;20.51;100.00;99612.91;4999070;28;20416;-70
2023/06/17 08:51:28;;;;;;;8.10;5.47;;;;;;;20.61;100.00;99638.94;5012335;28;20036;-68
2023/06/17 08:53:55;;;;;;;7.43;5.03;;;;;;;20.51;100.00;99631.25;5012104;28;20022;-65
2023/06/17 08:56:20;;;;;;;9.35;4.75;;;;;;;20.35;100.00;99598.34;5011880;28;20472;-65
2023/06/17 08:58:45;;;;;;;8.98;5.25;;;;;;;20.54;100.00;99611.97;5012478;28;20041;-72
2023/06/17 09:01:12;;;;;;;9.90;5.80;;;;;;;20.64;100.00;99599.56;5011095;28;20040;-67
2023/06/17 09:03:41;;;;;;;9.15;5.28;;;;;;;20.81;100.00;99621.13;5011593;28;20562;-65
2023/06/17 09:06:28;;;;;;;12.65;5.65;;;;;;;20.82;100.00;99625.50;5011841;28;20117;-68
2023/06/17 09:08:55;;;;;;;8.65;5.50;;;;;;;20.87;100.00;99603.53;5012277;28;20061;-70
2023/06/17 09:11:26;;;;;;;8.80;6.82;;;;;;;20.98;100.00;99627.81;5010184;28;20106;-69
2023/06/17 09:13:52;;;;;;;8.73;6.35;;;;;;;21.08;100.00;99631.13;5012067;28;20070;-71
2023/06/17 09:16:35;;;;;;;9.05;5.60;;;;;;;21.16;100.00;99627.44;5011266;28;20017;-70
2023/06/17 09:19:13;;;;;;;7.60;5.32;;;;;;;20.99;100.00;99604.16;5011522;28;20026;-72
2023/06/17 09:21:39;;;;;;;7.82;5.38;;;;;;;21.04;100.00;99617.19;5011641;28;20061;-69
2023/06/17 09:24:06;;;;;;;7.93;5.25;;;;;;;21.22;100.00;99629.09;5009799;28;20460;-70
2023/06/17 09:26:35;;;;;;;10.82;5.45;;;;;;;21.14;100.00;99626.59;5010504;28;20099;-66
2023/06/17 09:29:03;;;;;;;12.68;5.95;;;;;;;21.17;100.00;99625.66;5011297;28;20564;-67
2023/06/17 09:31:29;;;;;;;8.18;6.07;;;;;;;21.30;100.00;99624.53;5011470;28;20105;-68
2023/06/17 09:33:56;;;;;;;8.68;5.80;;;;;;;21.32;100.00;99632.38;5011393;28;20026;-65
2023/06/17 09:36:25;;;;;;;9.38;5.65;;;;;;;21.32;100.00;99622.75;5011477;28;20073;-67
2023/06/17 09:38:51;;;;;;;9.13;5.40;;;;;;;21.05;100.00;99582.19;5011207;28;20030;-67
2023/06/17 09:41:20;;;;;;;13.18;6.38;;;;;;;21.09;100.00;99573.34;5011130;28;20296;-68
2023/06/17 09:43:52;;;;;;;10.23;5.20;;;;;;;21.59;100.00;99640.59;5011196;28;20030;-69
2023/06/17 09:46:29;;;;;;;11.98;5.40;;;;;;;21.67;100.00;99637.81;5011256;28;20030;-66
2023/06/17 09:48:58;;;;;;;13.65;5.40;;;;;;;21.61;100.00;99630.94;5025237;28;20034;-68
2023/06/17 09:51:23;;;;;;;7.97;5.40;;;;;;;21.47;100.00;99626.81;5010985;28;20032;-68
2023/06/17 09:53:55;;;;;;;7.15;4.85;;;;;;;21.51;100.00;99638.13;5010737;28;20280;-68
2023/06/17 09:56:22;;;;;;;7.70;5.53;;;;;;;21.61;100.00;99639.66;5011117;28;20022;-64
2023/06/17 09:58:50;;;;;;;7.35;5.68;;;;;;;21.78;100.00;99631.41;5011054;28;20034;-71
2023/06/17 10:01:16;;;;;;;8.70;6.03;;;;;;;21.58;100.00;99578.47;5009006;28;20037;-69
2023/06/17 10:03:42;;;;;;;9.88;5.35;;;;;;;21.76;100.00;99630.59;5009715;28;20034;-67
2023/06/17 10:06:16;;;;;;;8.40;5.57;;;;;;;21.69;100.00;99626.34;5010677;28;20026;-67
2023/06/17 10:08:48;;;;;;;8.95;5.32;;;;;;;21.72;100.00;99638.56;5010640;28;20032;-67
2023/06/17 10:11:19;;;;;;;12.73;5.72;;;;;;;21.48;100.00;99581.28;5011096;28;20033;-67
2023/06/17 10:13:54;;;;;;;6.55;5.35;;;;;;;21.52;100.00;99578.56;5010535;28;20113;-67
2023/06/17 10:16:23;;;;;;;6.63;5.00;;;;;;;21.79;100.00;99632.28;5010757;28;20083;-68
2023/06/17 10:18:51;;;;;;;7.43;5.05;;;;;;;21.90;100.00;99634.66;5010372;28;20108;-64
2023/06/17 10:21:19;;;;;;;7.68;4.93;;;;;;;21.73;100.00;99616.66;5010357;28;20141;-65
2023/06/17 10:23:47;;;;;;;8.32;5.10;;;;;;;21.81;100.00;99636.59;5010177;28;20551;-68
2023/06/17 10:26:13;;;;;;;10.13;5.18;;;;;;;21.78;100.00;99633.16;5010700;28;20439;-69
2023/06/17 10:28:43;;;;;;;7.20;4.95;;;;;;;21.88;100.00;99631.19;5009969;28;20046;-69
2023/06/17 10:31:29;;;;;;;6.03;4.50;;;;;;;21.82;100.00;99616.47;5009765;28;20423;-65
2023/06/17 10:33:57;;;;;;;6.05;4.53;;;;;;;21.89;100.00;99630.31;5009964;28;20036;-67
2023/06/17 10:36:27;;;;;;;6.85;4.85;;;;;;;21.64;100.00;99573.91;5010468;28;20425;-68
2023/06/17 10:39:12;;;;;;;9.48;5.13;;;;;;;22.00;100.00;99627.44;5010478;28;20103;-70
2023/06/17 10:41:37;;;;;;;7.55;4.78;;;;;;;22.15;100.00;99621.78;5009593;28;20542;-71
2023/06/17 10:44:34;;;;;;;7.78;4.82;;;;;;;22.02;100.00;99625.63;5009264;28;20030;-72
2023/06/17 10:47:02;;;;;;;7.40;4.95;;;;;;;21.94;100.00;99625.78;4997851;28;20459;-71
2023/06/17 10:49:40;;;;;;;7.82;5.35;;;;;;;21.90;100.00;99625.00;5010093;28;20168;-71
2023/06/17 10:52:06;;;;;;;7.25;5.20;;;;;;;21.83;100.00;99628.66;5009836;28;20029;-65
2023/06/17 10:54:33;;;;;;;10.15;5.65;;;;;;;21.67;100.00;99620.28;5010408;28;20033;-69
2023/06/17 10:57:04;;;;;;;8.20;5.63;;;;;;;21.71;100.00;99621.06;5010147;28;20481;-68
2023/06/17 10:59:31;;;;;;;9.93;5.75;;;;;;;21.75;100.00;99620.97;5010040;28;20026;-68
2023/06/17 11:02:01;;;;;;;7.80;5.50;;;;;;;21.62;100.00;99603.75;5010013;28;20025;-69
2023/06/17 11:04:31;;;;;;;10.90;6.57;;;;;;;21.44;100.00;99615.50;5008301;28;20113;-68
2023/06/17 11:06:58;;;;;;;8.90;6.45;;;;;;;21.30;100.00;99610.56;5010272;28;20025;-69
2023/06/17 11:09:25;;;;;;;9.02;6.97;;;;;;;21.27;100.00;99606.22;5009871;28;20109;-65
2023/06/17 11:11:51;;;;;;;8.55;7.53;;;;;;;21.25;100.00;99610.63;5024136;28;20068;-66
2023/06/17 11:14:22;;;;;;;11.35;7.50;;;;;;;21.06;100.00;99596.16;5009878;28;20104;-66
2023/06/17 11:16:48;;;;;;;11.18;7.15;;;;;;;21.07;100.00;99598.78;5009669;28;20036;-66